CheckWX is a tool to help pilots better visualize weather data.  It is not intended as a substitute for an official pre-flight weather briefing.

07:46:06 UTC

PAJN TAF
Juneau International Airport
Juneau, Alaska, USA
PAJN 260550Z 2606/2706 VRB05KT 2SM -RA SCT005 OVC020 WS020/14030KT TEMPO 2606/2610 1/2SM SN VV005 FM261200 13009KT 2SM -RA BR OVC009 WS020/14040KT FM261700 11015G25KT 3/4SM -RA BR OVC004 WS020/14040KT FM270100 11011KT 4SM -RA BR OVC007

Jan-26@
06:00 UTC

Jan-26 @ 06:00 UTC

Jan-26@
12:00 UTC

Jan-26 @ 12:00 UTC

PAJN 260550Z 2606/2706 VRB05KT 2SM -RA SCT005 OVC020 WS020/14030KT
Wind
  • Variable at 5 KTS
Conditions
Light Rain
Cloud Levels
  • Scattered at 500' AGL
  • Overcast at 2,000' AGL

Jan-26@
06:00 UTC

Jan-26 @ 06:00 UTC

Jan-26@
10:00 UTC

Jan-26 @ 10:00 UTC

TEMPO 2606/2610 1/2SM SN VV005

Temporary

Temporary Changes expected for less than half the time period

Conditions
Snow
Cloud Levels
  • Vertical visibility at 500' AGL

Jan-26@
12:00 UTC

Jan-26 @ 12:00 UTC

Jan-26@
17:00 UTC

Jan-26 @ 17:00 UTC

FM261200 13009KT 2SM -RA BR OVC009 WS020/14040KT

From

From Standard forecast or significant change

Wind
  • 130° at 9 KTS
Conditions
Light Rain, Mist
Cloud Levels
  • Overcast at 900' AGL

Jan-26@
17:00 UTC

Jan-26 @ 17:00 UTC

Jan-27@
01:00 UTC

Jan-27 @ 01:00 UTC

FM261700 11015G25KT 3/4SM -RA BR OVC004 WS020/14040KT

From

From Standard forecast or significant change

Wind
  • 110° at 15 KTS
  • {Gusting to 25 KTS
Conditions
Light Rain, Mist
Cloud Levels
  • Overcast at 400' AGL

Jan-27@
01:00 UTC

Jan-27 @ 01:00 UTC

Jan-27@
06:00 UTC

Jan-27 @ 06:00 UTC

FM270100 11011KT 4SM -RA BR OVC007

From

From Standard forecast or significant change

Wind
  • 110° at 11 KTS
Conditions
Light Rain, Mist
Cloud Levels
  • Overcast at 700' AGL